Terminal Aerodrome Forecast
Issued by NWS

Home | Current Version | Previous Version | Text Only | Print | Product List | Glossary On
Versions: 1 2 3 4 5 6 7 8 9 10 11 12 13 14 15 16 17
000
FTUS43 KFGF 292300
TAFDVL
TAF
KDVL 292320Z 3000/3024 31013KT P6SM SCT080
     FM300100 29006KT P6SM SKC
     FM300900 16006KT P6SM BKN080
     FM301800 31022G29KT P6SM SCT120
      AMD LTD TO CLD VIS AND WIND=

USA.gov is the U.S. government's official web portal to all federal, state and local government web resources and services.